Portada
METAR-TAF:

METAR-TAF

Aeroports :

Aeroport de Pemba

Pemba, Moçambic

latitud: 12-59S, longitud: 040-32E, altitud: 101 m

Observació

L'informe es va fer fa 1 hora i 21 minuts, a les 11:00 UTC
Vent 14 kt del Sud/Sud-Est
Temperatura 29°C
Humitat 62%
Pressió 1016 hPa
Visibilitat 10 km o més
Núvols disperses a una alçada de 2000 ft

METAR: FQPB 301100Z 15014KT 9999 SCT020 29/21 Q1016

Hora: 14:21 (12:21 UTC)

Pronòstic

L'informe es va fer fa 2 hores i 21 minuts, a les 10:00 UTC
Pronòstic vàlid del 30 a les 12 UTC al 31 a les 12 UTC
Vent 13 kt del Sud/Sud-Est
Visibilitat 10 km o més
Núvols disperses a una alçada de 2000 ft
Evolucionant progressivament
l' 31 a les 00 UTC al 31 a les 02 UTC
Vent 13 kt del Sud amb ràfegues de 23 kt

TAF: FQPB 301000Z 3012/3112 16013KT 9999 SCT020 TX30/3013Z TN21/3103Z BECMG 3100/3102 19013G23KT

Observacions i pronòstics meteorològics de més de 4000 aeroports (METAR i TAF).

Les estacions disponibles són els punts grocs i vermells al mapa.

Posi el ratolí al punt desitjat per veure el nom de l'estació.

Feu clic per veure les observacions i els pronòstics meteorològics.

Per canviar el mapa: feu clic els botons verds amb una creu de color negre per apropar; al botó verd amb un guió per allunyar la imatge; o en les fletxes verdes per a mapes adjacents.


METAR-TAF: